Time;durP1;ratioP1;P1;durP2;ratioP2;P2;SDS_P1;SDS_P2;PMS_P1;PMS_P2;Temp;Humidity;BMP_temperature;BMP_pressure;BME280_temperature;BME280_humidity;BME280_pressure;Samples;Min_cycle;Max_cycle;Signal;HPM_P1;HPM_P2
2023/01/10 00:00:10;;;;;;;63.80;32.90;;;;;;;5.80;97.12;99124.81;103302;1256;138169;-93
2023/01/10 00:02:57;;;;;;;67.60;33.70;;;;;;;5.77;96.95;99124.18;103520;1253;97205;-92
2023/01/10 00:05:25;;;;;;;72.80;34.20;;;;;;;5.76;97.19;99124.56;103443;1253;139614;-92
2023/01/10 00:07:52;;;;;;;66.60;35.10;;;;;;;5.76;97.16;99127.33;102783;1252;1015411;-92
2023/01/10 00:10:19;;;;;;;68.20;33.00;;;;;;;5.76;97.23;99124.39;103620;1253;109348;-94
2023/01/10 00:15:33;;;;;;;66.30;33.10;;;;;;;5.78;97.18;99125.21;103606;1253;97023;-93
2023/01/10 00:18:01;;;;;;;69.90;34.80;;;;;;;5.77;97.25;99130.04;103811;1253;138315;-93
2023/01/10 00:20:28;;;;;;;72.00;35.40;;;;;;;5.78;97.27;99137.11;103694;1256;96458;-93
2023/01/10 00:22:56;;;;;;;74.50;36.10;;;;;;;5.78;97.28;99146.23;103435;1253;139324;-95
2023/01/10 00:25:23;;;;;;;67.80;35.50;;;;;;;5.79;97.40;99151.56;103798;1257;105279;-92
2023/01/10 00:28:00;;;;;;;70.60;35.10;;;;;;;5.80;97.30;99159.64;103857;1253;94929;-95
2023/01/10 00:30:27;;;;;;;71.80;35.90;;;;;;;5.78;97.22;99165.20;103808;1253;138531;-95
2023/01/10 00:32:55;;;;;;;70.80;35.70;;;;;;;5.79;97.15;99170.54;103991;1256;96440;-95
2023/01/10 00:35:22;;;;;;;68.20;35.00;;;;;;;5.79;97.16;99171.40;103977;1252;139090;-94
2023/01/10 00:37:50;;;;;;;70.00;35.50;;;;;;;5.80;97.33;99173.27;104032;1253;106665;-94
2023/01/10 00:40:18;;;;;;;69.90;35.10;;;;;;;5.80;97.26;99176.36;104178;1253;96875;-94
2023/01/10 00:45:30;;;;;;;69.40;34.00;;;;;;;5.81;97.02;99182.52;104241;1253;96629;-95
2023/01/10 00:47:57;;;;;;;69.10;33.70;;;;;;;5.81;97.08;99184.09;104159;1253;136956;-94
2023/01/10 00:50:24;;;;;;;63.50;32.90;;;;;;;5.81;97.07;99183.38;103996;1253;106786;-93
2023/01/10 00:52:51;;;;;;;65.80;34.70;;;;;;;5.83;97.15;99183.52;104090;1254;137375;-95
2023/01/10 00:55:18;;;;;;;67.80;34.40;;;;;;;5.83;97.09;99184.02;104113;1253;106330;-94
2023/01/10 00:57:45;;;;;;;67.30;33.80;;;;;;;5.85;97.27;99193.09;104008;1255;95159;-96
2023/01/10 01:00:15;;;;;;;72.00;35.10;;;;;;;5.86;97.08;99196.86;103890;1256;136971;-94
2023/01/10 01:02:42;;;;;;;69.30;34.90;;;;;;;5.87;96.92;99202.70;103801;1256;106557;-92
2023/01/10 01:05:10;;;;;;;71.00;35.70;;;;;;;5.88;97.03;99205.60;103597;1253;140145;-93
2023/01/10 01:07:37;;;;;;;72.10;35.10;;;;;;;5.89;97.00;99206.96;102991;1256;1003034;-93
2023/01/10 01:12:50;;;;;;;72.20;34.90;;;;;;;5.87;96.85;99209.09;102825;1256;1002565;-92
2023/01/10 01:15:17;;;;;;;76.80;36.10;;;;;;;5.86;96.84;99213.42;103437;1257;107945;-94
2023/01/10 01:17:44;;;;;;;79.00;37.70;;;;;;;5.85;96.61;99216.23;103487;1253;138276;-91
2023/01/10 01:20:13;;;;;;;70.80;36.20;;;;;;;5.85;96.84;99220.71;103599;1253;109099;-95
2023/01/10 01:22:41;;;;;;;77.60;36.20;;;;;;;5.87;97.15;99218.77;103504;1256;138279;-90
2023/01/10 01:25:09;;;;;;;77.30;37.10;;;;;;;5.87;97.12;99222.17;103555;1256;108839;-90
2023/01/10 01:27:37;;;;;;;76.20;36.80;;;;;;;5.89;97.22;99219.72;103460;1256;106777;-90
2023/01/10 01:30:04;;;;;;;77.20;37.40;;;;;;;5.89;96.98;99221.64;103449;1256;138351;-90
2023/01/10 01:32:31;;;;;;;74.70;36.40;;;;;;;5.89;97.16;99225.59;103519;1253;107905;-90
2023/01/10 01:34:59;;;;;;;81.20;37.70;;;;;;;5.88;97.09;99231.13;103332;1256;138474;-90
2023/01/10 01:37:26;;;;;;;76.00;36.90;;;;;;;5.89;96.96;99235.43;103515;1252;108864;-89
2023/01/10 01:39:53;;;;;;;79.30;36.60;;;;;;;5.87;96.88;99240.13;103487;1256;107228;-89
2023/01/10 01:42:26;;;;;;;82.10;38.90;;;;;;;5.87;97.00;99242.02;103360;1254;138166;-88
2023/01/10 01:45:31;;;;;;;81.40;37.80;;;;;;;5.87;97.08;99242.19;103541;1256;107820;-88
2023/01/10 01:48:02;;;;;;;80.20;37.80;;;;;;;5.88;97.18;99245.63;103394;1256;138095;-88
2023/01/10 01:50:35;;;;;;;81.70;39.00;;;;;;;5.89;97.20;99250.27;103532;1253;111175;-89
2023/01/10 01:53:08;;;;;;;79.90;37.60;;;;;;;5.89;97.10;99251.63;103378;1256;138451;-87
2023/01/10 01:55:36;;;;;;;78.90;38.40;;;;;;;5.89;97.07;99250.09;103519;1253;96326;-87
2023/01/10 01:58:09;;;;;;;80.30;39.10;;;;;;;5.89;97.23;99248.19;103438;1253;108029;-87
2023/01/10 02:00:36;;;;;;;83.70;39.80;;;;;;;5.91;97.26;99248.67;103317;1256;138133;-88
2023/01/10 02:03:05;;;;;;;80.00;40.10;;;;;;;5.92;97.27;99247.09;103573;1252;111224;-87
2023/01/10 02:05:34;;;;;;;82.60;40.50;;;;;;;5.93;97.23;99248.48;103306;1256;138195;-87
2023/01/10 02:08:02;;;;;;;82.50;39.70;;;;;;;5.95;97.18;99254.63;103503;1253;96394;-87
2023/01/10 02:10:37;;;;;;;87.40;40.50;;;;;;;5.95;97.12;99260.30;103466;1256;107022;-86
2023/01/10 02:13:08;;;;;;;81.10;38.80;;;;;;;5.95;97.02;99265.98;103615;1256;96332;-86
2023/01/10 02:15:35;;;;;;;77.10;39.20;;;;;;;5.95;97.28;99267.05;103586;1253;109343;-86
2023/01/10 02:18:04;;;;;;;83.60;39.60;;;;;;;5.95;97.10;99272.03;103096;1259;380558;-86
2023/01/10 02:20:37;;;;;;;85.70;41.10;;;;;;;5.96;97.02;99272.54;103455;1253;96972;-87
2023/01/10 02:23:30;;;;;;;77.60;39.10;;;;;;;5.97;97.01;99278.36;102414;1256;1003610;-87
2023/01/10 02:26:40;;;;;;;80.50;39.20;;;;;;;5.97;97.20;99274.75;103357;1257;96556;-87
2023/01/10 02:29:35;;;;;;;78.20;40.80;;;;;;;5.96;96.83;99275.27;102858;1259;138714;-86
2023/01/10 02:32:20;;;;;;;85.00;40.80;;;;;;;5.97;96.97;99276.13;102825;1265;107081;-86
2023/01/10 02:35:17;;;;;;;80.20;40.20;;;;;;;5.97;96.95;99276.63;102712;1262;138670;-86
2023/01/10 02:37:57;;;;;;;80.60;39.60;;;;;;;5.97;97.01;99283.54;102866;1259;107475;-85
2023/01/10 02:40:31;;;;;;;82.30;40.90;;;;;;;5.97;96.93;99284.22;102780;1259;97340;-85
2023/01/10 02:43:06;;;;;;;80.30;40.20;;;;;;;5.97;96.82;99283.88;102900;1259;110184;-85
2023/01/10 02:45:38;;;;;;;83.70;39.80;;;;;;;5.96;96.83;99284.41;102766;1259;107691;-85
2023/01/10 02:48:06;;;;;;;78.10;40.30;;;;;;;5.96;96.84;99285.98;102712;1263;138126;-85
2023/01/10 02:50:50;;;;;;;76.80;39.40;;;;;;;5.97;96.82;99283.86;102903;1261;107687;-85
2023/01/10 02:53:22;;;;;;;78.40;40.00;;;;;;;5.97;96.72;99281.29;102725;1261;138220;-85
2023/01/10 02:56:12;;;;;;;77.30;38.70;;;;;;;5.97;96.82;99281.98;102852;1259;109283;-86
2023/01/10 02:59:00;;;;;;;81.60;41.40;;;;;;;5.96;96.63;99285.81;102996;1259;141808;-85
2023/01/10 03:01:37;;;;;;;75.10;39.60;;;;;;;5.97;96.82;99289.77;103271;1253;97213;-86
2023/01/10 03:04:17;;;;;;;78.80;39.70;;;;;;;5.96;96.64;99290.30;103905;1253;108794;-84
2023/01/10 03:06:52;;;;;;;75.20;39.20;;;;;;;5.95;96.53;99291.89;103374;1253;138109;-85
2023/01/10 03:09:29;;;;;;;75.40;38.70;;;;;;;5.94;96.77;99291.89;104610;1254;109001;-84
2023/01/10 03:12:08;;;;;;;73.10;38.50;;;;;;;5.94;96.63;99296.73;103160;1253;138483;-85
2023/01/10 03:14:37;;;;;;;80.60;39.80;;;;;;;5.93;96.59;99297.63;103380;1256;96684;-84
2023/01/10 03:17:07;;;;;;;75.70;38.60;;;;;;;5.93;96.66;99294.36;103320;1253;139024;-84
2023/01/10 03:19:40;;;;;;;75.80;38.40;;;;;;;5.92;96.70;99298.33;103450;1253;96558;-84
2023/01/10 03:22:11;;;;;;;72.90;37.00;;;;;;;5.92;96.61;99297.30;103396;1254;109423;-84
2023/01/10 03:24:42;;;;;;;72.30;38.60;;;;;;;5.91;96.57;99298.52;103225;1254;138123;-84
2023/01/10 03:27:15;;;;;;;74.60;38.00;;;;;;;5.91;96.56;99300.44;103296;1253;96335;-84
2023/01/10 03:29:48;;;;;;;71.40;37.40;;;;;;;5.90;96.52;99303.04;103220;1253;138839;-84
2023/01/10 03:32:20;;;;;;;75.50;38.40;;;;;;;5.88;96.54;99306.35;103370;1253;96450;-82
2023/01/10 03:34:48;;;;;;;73.50;37.80;;;;;;;5.87;96.75;99306.39;103297;1253;138151;-83
2023/01/10 03:37:23;;;;;;;78.50;39.00;;;;;;;5.86;96.68;99307.29;103291;1254;107037;-82
2023/01/10 03:40:00;;;;;;;71.20;36.20;;;;;;;5.83;96.62;99304.95;103640;1256;96458;-82
2023/01/10 03:44:42;;;;;;;70.10;35.90;;;;;;;5.82;96.65;99308.25;103316;1258;138531;-82
2023/01/10 03:45:29;;;;;;;75.20;38.60;;;;;;;5.82;96.67;99314.64;103629;1254;96444;-83
2023/01/10 03:48:01;;;;;;;77.40;39.20;;;;;;;5.81;96.57;99313.83;103302;1252;138266;-83
2023/01/10 03:50:30;;;;;;;76.20;39.00;;;;;;;5.80;96.66;99315.39;103342;1254;107578;-83
2023/01/10 03:52:58;;;;;;;78.90;38.90;;;;;;;5.80;96.76;99318.67;103295;1252;140043;-83
2023/01/10 03:55:28;;;;;;;78.80;39.00;;;;;;;5.80;96.90;99326.95;103405;1256;107148;-83
2023/01/10 03:57:56;;;;;;;82.10;39.10;;;;;;;5.80;96.82;99322.97;103418;1254;96553;-82
2023/01/10 04:00:24;;;;;;;81.00;38.90;;;;;;;5.80;96.71;99329.55;103260;1254;137950;-82
2023/01/10 04:02:52;;;;;;;83.60;40.20;;;;;;;5.79;96.62;99331.28;103436;1252;108766;-82
2023/01/10 04:05:19;;;;;;;79.10;39.10;;;;;;;5.79;96.75;99337.67;103271;1256;139509;-83
2023/01/10 04:07:47;;;;;;;81.30;39.20;;;;;;;5.80;96.91;99338.00;103426;1254;108965;-83
2023/01/10 04:10:15;;;;;;;84.10;39.50;;;;;;;5.80;96.72;99348.69;103356;1256;95522;-83
2023/01/10 04:12:42;;;;;;;82.20;39.80;;;;;;;5.80;96.79;99352.14;103296;1256;138076;-82
2023/01/10 04:15:11;;;;;;;85.30;41.10;;;;;;;5.80;96.54;99355.23;103364;1254;108319;-83
2023/01/10 04:17:38;;;;;;;82.20;39.50;;;;;;;5.80;96.68;99359.72;103280;1253;138110;-82
2023/01/10 04:20:06;;;;;;;79.30;38.30;;;;;;;5.81;96.74;99363.33;103347;1257;108155;-82
2023/01/10 04:22:33;;;;;;;75.90;38.70;;;;;;;5.81;96.75;99369.52;102620;1256;1002686;-82
2023/01/10 04:25:00;;;;;;;76.00;38.10;;;;;;;5.81;96.49;99367.28;103410;1256;110092;-82
2023/01/10 04:27:27;;;;;;;71.30;37.20;;;;;;;5.82;96.41;99375.38;103372;1256;105650;-81
2023/01/10 04:29:55;;;;;;;77.90;39.20;;;;;;;5.82;96.46;99382.10;103289;1253;138181;-82
2023/01/10 04:32:22;;;;;;;73.90;38.80;;;;;;;5.82;96.46;99384.67;103391;1256;109689;-82
2023/01/10 04:34:50;;;;;;;79.00;38.00;;;;;;;5.82;96.37;99388.81;103266;1256;138829;-82
2023/01/10 04:37:17;;;;;;;80.00;38.60;;;;;;;5.81;96.39;99389.18;103444;1266;110147;-82
2023/01/10 04:39:44;;;;;;;78.40;39.40;;;;;;;5.80;96.08;99383.70;103409;1256;107694;-81
2023/01/10 04:42:11;;;;;;;77.10;37.70;;;;;;;5.78;95.91;99387.73;103369;1254;139008;-82
2023/01/10 04:44:38;;;;;;;75.00;37.00;;;;;;;5.75;95.95;99388.66;103207;1257;107190;-82
2023/01/10 04:47:05;;;;;;;73.00;36.50;;;;;;;5.74;95.85;99399.55;103312;1262;138445;-81
2023/01/10 04:49:32;;;;;;;73.90;37.10;;;;;;;5.72;95.96;99405.09;103458;1253;111050;-81
2023/01/10 04:52:00;;;;;;;72.20;37.60;;;;;;;5.71;95.90;99410.14;103373;1253;107458;-81
2023/01/10 04:54:27;;;;;;;76.90;39.10;;;;;;;5.70;96.01;99413.09;103353;1257;139350;-81
2023/01/10 04:56:54;;;;;;;74.90;38.00;;;;;;;5.68;95.82;99422.29;103280;1257;107726;-81
2023/01/10 04:59:22;;;;;;;75.80;37.30;;;;;;;5.67;96.04;99430.42;103380;1257;140248;-81
2023/01/10 05:01:49;;;;;;;69.40;36.10;;;;;;;5.67;96.04;99430.77;103511;1259;109595;-81
2023/01/10 05:04:16;;;;;;;75.70;37.90;;;;;;;5.67;95.91;99433.71;103406;1257;108715;-81
2023/01/10 05:06:48;;;;;;;67.60;34.90;;;;;;;5.66;96.00;99438.03;103326;1256;140217;-80
2023/01/10 05:09:15;;;;;;;67.10;35.40;;;;;;;5.66;96.07;99440.47;103445;1254;106780;-80
2023/01/10 05:11:42;;;;;;;68.50;34.90;;;;;;;5.66;96.03;99439.27;103313;1257;138131;-80
2023/01/10 05:14:09;;;;;;;70.00;36.80;;;;;;;5.65;95.93;99445.15;102689;1256;1002455;-79
2023/01/10 05:16:36;;;;;;;71.10;37.90;;;;;;;5.65;95.99;99453.24;103265;1259;107808;-79
2023/01/10 05:19:04;;;;;;;71.70;36.00;;;;;;;5.65;96.06;99459.96;103372;1253;96443;-80
2023/01/10 05:21:31;;;;;;;69.90;36.30;;;;;;;5.68;96.16;99473.52;103437;1255;107764;-79
2023/01/10 05:23:58;;;;;;;72.80;38.80;;;;;;;5.70;96.20;99477.77;103297;1257;140493;-80
2023/01/10 05:26:25;;;;;;;73.80;37.40;;;;;;;5.72;96.15;99478.75;102631;1257;1019282;-80
2023/01/10 05:28:52;;;;;;;76.10;38.50;;;;;;;5.73;96.20;99482.17;103332;1255;138476;-80
2023/01/10 05:31:20;;;;;;;72.60;38.00;;;;;;;5.75;96.06;99485.60;103435;1254;96989;-80
2023/01/10 05:33:49;;;;;;;72.80;37.10;;;;;;;5.76;96.02;99490.23;103387;1254;108145;-79
2023/01/10 05:36:17;;;;;;;71.10;36.50;;;;;;;5.77;96.09;99498.32;103296;1257;139395;-79
2023/01/10 05:38:44;;;;;;;74.60;36.70;;;;;;;5.79;96.09;99505.70;102638;1257;1003324;-80
2023/01/10 05:41:11;;;;;;;72.90;38.20;;;;;;;5.81;96.08;99509.79;103229;1253;138441;-80
2023/01/10 05:43:38;;;;;;;75.40;38.70;;;;;;;5.81;95.90;99512.02;103508;1253;97003;-79
2023/01/10 05:46:06;;;;;;;72.60;38.10;;;;;;;5.83;95.85;99515.42;103405;1254;108086;-79
2023/01/10 05:48:33;;;;;;;73.50;38.50;;;;;;;5.84;95.94;99521.27;103299;1254;138574;-80
2023/01/10 05:51:00;;;;;;;73.10;37.30;;;;;;;5.84;95.81;99522.46;103425;1254;110292;-79
2023/01/10 05:53:28;;;;;;;67.00;36.10;;;;;;;5.85;95.76;99531.23;103302;1256;139940;-80
2023/01/10 05:55:57;;;;;;;73.40;37.40;;;;;;;5.86;95.61;99533.96;103476;1257;96372;-80
2023/01/10 05:58:25;;;;;;;75.00;38.80;;;;;;;5.87;95.62;99537.58;103957;1256;107353;-80
2023/01/10 06:00:53;;;;;;;76.40;39.10;;;;;;;5.85;95.33;99542.96;103148;1257;138254;-80
2023/01/10 06:03:20;;;;;;;74.80;38.20;;;;;;;5.85;95.49;99550.71;103457;1256;109213;-80
2023/01/10 06:05:47;;;;;;;77.20;38.70;;;;;;;5.86;95.57;99552.61;103281;1257;138220;-79
2023/01/10 06:08:15;;;;;;;72.80;37.10;;;;;;;5.86;95.52;99562.93;103248;1254;96482;-79
2023/01/10 06:10:42;;;;;;;73.40;38.40;;;;;;;5.87;95.34;99566.73;102482;1254;1003760;-79
2023/01/10 06:13:10;;;;;;;77.20;37.80;;;;;;;5.87;95.50;99572.77;103426;1255;96322;-82
2023/01/10 06:15:39;;;;;;;73.30;36.60;;;;;;;5.86;95.25;99573.64;103433;1256;109351;-80
2023/01/10 06:18:07;;;;;;;70.70;38.00;;;;;;;5.86;95.23;99575.89;103341;1253;138320;-76
2023/01/10 06:20:36;;;;;;;69.30;37.40;;;;;;;5.86;95.21;99578.48;103561;1257;96529;-81
2023/01/10 06:23:03;;;;;;;67.10;36.40;;;;;;;5.84;95.20;99582.83;103302;1256;138095;-82
2023/01/10 06:25:30;;;;;;;76.20;38.70;;;;;;;5.84;95.22;99589.75;103400;1254;96277;-82
2023/01/10 06:27:57;;;;;;;74.60;37.90;;;;;;;5.81;95.22;99588.27;103500;1257;109428;-82
2023/01/10 06:30:25;;;;;;;70.10;37.60;;;;;;;5.83;95.32;99598.05;103147;1254;138252;-79
2023/01/10 06:32:52;;;;;;;70.90;38.00;;;;;;;5.84;95.24;99602.86;103501;1254;96459;-77
2023/01/10 06:35:19;;;;;;;66.70;36.40;;;;;;;5.84;95.36;99607.00;103341;1257;138160;-80
2023/01/10 06:37:46;;;;;;;68.40;37.00;;;;;;;5.85;95.33;99614.74;103385;1254;96329;-80
2023/01/10 06:40:14;;;;;;;73.00;38.00;;;;;;;5.86;95.35;99619.02;103428;1253;109978;-77
2023/01/10 06:42:41;;;;;;;69.10;37.20;;;;;;;5.85;95.17;99622.33;103387;1257;139187;-81
2023/01/10 06:45:11;;;;;;;68.50;37.20;;;;;;;5.84;94.94;99623.55;103568;1256;96993;-78
2023/01/10 06:47:38;;;;;;;71.60;36.40;;;;;;;5.82;95.14;99626.02;103288;1254;138028;-77
2023/01/10 06:50:07;;;;;;;69.40;36.40;;;;;;;5.83;95.09;99626.85;103444;1258;96446;-80
2023/01/10 06:52:34;;;;;;;67.90;37.30;;;;;;;5.83;95.05;99631.34;103437;1255;109965;-80
2023/01/10 06:55:01;;;;;;;67.20;36.40;;;;;;;5.84;95.16;99637.36;103322;1266;106789;-81
2023/01/10 06:57:28;;;;;;;66.10;35.80;;;;;;;5.84;95.27;99640.99;103410;1254;96440;-76
2023/01/10 06:59:56;;;;;;;70.70;36.60;;;;;;;5.83;94.97;99646.88;103181;1257;138052;-84
2023/01/10 07:02:23;;;;;;;67.50;36.50;;;;;;;5.83;95.02;99646.88;103403;1254;96337;-82
2023/01/10 07:04:50;;;;;;;67.00;35.90;;;;;;;5.83;95.05;99642.39;103248;1256;138311;-80
2023/01/10 07:07:18;;;;;;;64.90;35.60;;;;;;;5.83;94.95;99644.30;103306;1254;107367;-79
2023/01/10 07:09:45;;;;;;;63.50;35.40;;;;;;;5.82;94.95;99649.65;103434;1257;96436;-80
2023/01/10 07:12:12;;;;;;;66.70;35.70;;;;;;;5.81;94.77;99652.97;103230;1257;137968;-81
2023/01/10 07:14:39;;;;;;;63.80;34.60;;;;;;;5.80;94.86;99661.42;103293;1253;96354;-80
2023/01/10 07:17:06;;;;;;;64.20;33.90;;;;;;;5.79;94.76;99659.90;103439;1254;139053;-79
2023/01/10 07:19:33;;;;;;;64.90;34.00;;;;;;;5.79;94.82;99658.35;103455;1257;106887;-81
2023/01/10 07:22:03;;;;;;;65.60;34.50;;;;;;;5.80;94.61;99661.63;103425;1252;96440;-79
2023/01/10 07:24:31;;;;;;;62.20;33.80;;;;;;;5.78;94.49;99663.38;103641;1255;138045;-79
2023/01/10 07:26:58;;;;;;;65.60;34.50;;;;;;;5.75;94.35;99667.05;103581;1254;1002803;-79
2023/01/10 07:29:25;;;;;;;60.90;33.80;;;;;;;5.74;94.44;99664.14;103365;1255;138724;-78
2023/01/10 07:31:53;;;;;;;62.50;33.70;;;;;;;5.73;94.44;99666.56;103471;1256;107799;-79
2023/01/10 07:34:20;;;;;;;61.30;34.20;;;;;;;5.72;94.48;99669.34;103379;1257;96443;-79
2023/01/10 07:36:47;;;;;;;60.40;33.90;;;;;;;5.70;94.38;99670.26;103281;1254;138563;-78
2023/01/10 07:39:14;;;;;;;59.90;32.40;;;;;;;5.69;94.59;99676.83;103226;1253;96315;-78
2023/01/10 07:41:42;;;;;;;63.70;33.00;;;;;;;5.70;94.41;99679.41;103159;1256;139125;-77
2023/01/10 07:44:14;;;;;;;58.50;32.30;;;;;;;5.69;94.33;99679.44;103309;1254;107653;-78
2023/01/10 07:46:41;;;;;;;66.80;33.10;;;;;;;5.67;94.14;99680.32;103240;1254;138593;-76
2023/01/10 07:49:08;;;;;;;58.30;31.60;;;;;;;5.66;93.97;99681.91;103240;1257;108861;-80
2023/01/10 07:51:36;;;;;;;59.60;31.80;;;;;;;5.65;93.88;99686.95;103458;1254;96414;-79
2023/01/10 07:54:03;;;;;;;61.80;32.10;;;;;;;5.63;94.12;99688.36;103291;1254;138189;-77
2023/01/10 07:56:30;;;;;;;53.00;29.60;;;;;;;5.61;93.92;99682.02;103282;1254;108828;-78
2023/01/10 07:58:57;;;;;;;56.10;30.90;;;;;;;5.60;93.85;99683.95;103215;1256;140733;-79
2023/01/10 08:01:25;;;;;;;54.70;30.20;;;;;;;5.59;93.69;99686.39;103303;1253;106830;-82
2023/01/10 08:03:52;;;;;;;58.00;31.50;;;;;;;5.58;93.58;99688.83;103405;1254;98113;-79
2023/01/10 08:06:19;;;;;;;53.90;29.10;;;;;;;5.57;93.49;99691.25;103308;1254;138184;-69
2023/01/10 08:08:46;;;;;;;52.80;29.30;;;;;;;5.56;93.40;99694.20;103290;1252;106807;-81
2023/01/10 08:11:13;;;;;;;50.70;28.20;;;;;;;5.53;93.33;99699.60;103203;1254;140346;-76
2023/01/10 08:13:40;;;;;;;53.70;28.80;;;;;;;5.50;93.17;99705.19;103392;1254;106751;-79
2023/01/10 08:16:09;;;;;;;51.60;29.40;;;;;;;5.46;93.18;99705.95;103352;1254;97809;-77
2023/01/10 08:18:37;;;;;;;52.70;29.50;;;;;;;5.45;93.39;99706.66;103205;1254;139741;-78
2023/01/10 08:21:05;;;;;;;55.00;29.30;;;;;;;5.44;93.33;99717.02;103271;1257;107614;-79
2023/01/10 08:23:32;;;;;;;57.70;29.90;;;;;;;5.44;93.46;99715.81;103216;1253;138724;-78
2023/01/10 08:26:01;;;;;;;53.60;29.00;;;;;;;5.44;93.38;99721.68;103326;1254;107382;-75
2023/01/10 08:28:28;;;;;;;55.10;29.40;;;;;;;5.44;93.36;99724.45;103355;1254;97871;-76
2023/01/10 08:30:56;;;;;;;56.20;29.30;;;;;;;5.44;93.44;99728.58;102515;1254;1003104;-75
2023/01/10 08:33:24;;;;;;;51.40;29.80;;;;;;;5.43;93.27;99727.90;103288;1257;107674;-78
2023/01/10 08:35:52;;;;;;;52.20;29.10;;;;;;;5.42;93.31;99732.59;103285;1254;138311;-78
2023/01/10 08:38:19;;;;;;;51.80;29.20;;;;;;;5.42;93.26;99736.38;102594;1254;1003681;-77
2023/01/10 08:40:46;;;;;;;53.80;29.80;;;;;;;5.43;93.42;99738.61;103136;1254;139630;-78
2023/01/10 08:43:15;;;;;;;50.30;27.20;;;;;;;5.44;93.30;99738.07;103370;1254;111731;-78
2023/01/10 08:45:42;;;;;;;53.40;29.30;;;;;;;5.44;93.14;99744.09;103421;1252;109111;-78
2023/01/10 08:48:10;;;;;;;50.60;28.10;;;;;;;5.43;93.11;99743.77;103369;1257;138379;-77
2023/01/10 08:50:37;;;;;;;50.10;28.10;;;;;;;5.42;92.71;99753.95;103336;1256;106986;-81
2023/01/10 08:53:04;;;;;;;49.40;27.80;;;;;;;5.42;92.90;99752.76;103313;1256;138807;-72
2023/01/10 08:55:34;;;;;;;47.90;27.00;;;;;;;5.43;92.88;99759.63;103412;1253;112453;-73
2023/01/10 08:58:02;;;;;;;44.80;26.90;;;;;;;5.44;92.93;99768.92;103393;1256;106813;-73
2023/01/10 09:00:30;;;;;;;52.00;28.70;;;;;;;5.43;92.74;99767.58;103371;1254;138394;-73
2023/01/10 09:02:57;;;;;;;48.20;27.50;;;;;;;5.44;92.87;99779.11;103414;1253;107948;-74
2023/01/10 09:05:25;;;;;;;48.30;26.40;;;;;;;5.43;92.77;99781.01;103314;1254;138373;-73
2023/01/10 09:07:58;;;;;;;52.70;27.20;;;;;;;5.42;92.57;99782.77;103379;1254;110760;-73
2023/01/10 09:10:26;;;;;;;47.30;27.20;;;;;;;5.42;92.64;99783.10;103288;1254;107973;-73
2023/01/10 09:12:58;;;;;;;49.20;28.00;;;;;;;5.42;92.50;99783.45;103360;1254;138530;-73
2023/01/10 09:15:26;;;;;;;48.90;27.10;;;;;;;5.40;92.48;99782.63;103192;1254;106709;-74
2023/01/10 09:17:56;;;;;;;46.30;27.30;;;;;;;5.40;92.57;99786.59;103263;1254;139373;-74
2023/01/10 09:20:26;;;;;;;52.20;27.60;;;;;;;5.41;92.53;99792.10;103412;1253;110809;-74
2023/01/10 09:22:55;;;;;;;46.90;27.30;;;;;;;5.41;92.39;99794.68;103265;1253;138473;-75
2023/01/10 09:25:23;;;;;;;46.90;25.90;;;;;;;5.41;92.37;99796.94;103338;1253;98421;-74
2023/01/10 09:27:57;;;;;;;49.00;27.40;;;;;;;5.41;92.56;99797.95;103442;1253;108314;-74
2023/01/10 09:30:25;;;;;;;46.80;26.60;;;;;;;5.42;92.48;99803.27;103131;1254;138317;-74
2023/01/10 09:32:54;;;;;;;46.60;26.60;;;;;;;5.42;92.35;99802.58;103430;1253;111559;-74
2023/01/10 09:35:21;;;;;;;49.80;26.20;;;;;;;5.43;92.34;99802.56;103171;1257;139723;-74
2023/01/10 09:37:48;;;;;;;48.70;26.30;;;;;;;5.44;92.31;99799.61;103421;1256;98300;-74
2023/01/10 09:40:19;;;;;;;48.80;26.50;;;;;;;5.48;92.52;99796.44;103458;1254;108714;-74
2023/01/10 09:43:06;;;;;;;43.40;25.80;;;;;;;5.52;92.40;99796.19;103179;1253;138561;-73
2023/01/10 09:45:45;;;;;;;47.10;26.70;;;;;;;5.53;92.29;99796.52;103370;1256;111622;-74
2023/01/10 09:48:20;;;;;;;46.50;25.70;;;;;;;5.53;91.94;99800.98;103307;1252;138568;-72
2023/01/10 09:51:02;;;;;;;43.90;25.70;;;;;;;5.55;91.98;99795.78;103496;1256;99500;-74
2023/01/10 09:53:40;;;;;;;44.30;26.00;;;;;;;5.57;91.98;99795.08;102529;1253;1003488;-73
2023/01/10 09:56:09;;;;;;;45.60;26.30;;;;;;;5.58;92.12;99793.16;103215;1254;97877;-74
2023/01/10 09:58:38;;;;;;;50.00;26.80;;;;;;;5.61;91.93;99793.79;103354;1254;110304;-73
2023/01/10 10:01:10;;;;;;;46.00;27.00;;;;;;;5.63;91.80;99794.08;103084;1253;107282;-74
2023/01/10 10:03:45;;;;;;;45.40;26.00;;;;;;;5.65;91.50;99788.70;103284;1253;98312;-71
2023/01/10 10:06:14;;;;;;;48.00;25.60;;;;;;;5.66;91.52;99791.26;103249;1254;138252;-75
2023/01/10 10:08:43;;;;;;;50.30;26.20;;;;;;;5.67;91.60;99792.96;103535;1253;97826;-76
2023/01/10 10:11:33;;;;;;;48.60;26.20;;;;;;;5.66;91.52;99799.54;103444;1253;139131;-74
2023/01/10 10:14:07;;;;;;;46.10;25.90;;;;;;;5.65;91.28;99801.29;103471;1253;107538;-74
2023/01/10 10:16:43;;;;;;;48.30;26.20;;;;;;;5.63;91.23;99800.63;102675;1256;1003511;-72
2023/01/10 10:19:20;;;;;;;45.10;25.70;;;;;;;5.63;91.33;99801.51;103483;1253;107489;-74
2023/01/10 10:21:56;;;;;;;47.60;25.10;;;;;;;5.62;91.26;99805.48;103425;1256;97796;-74
2023/01/10 10:24:47;;;;;;;50.30;27.00;;;;;;;5.61;91.32;99804.13;102586;1256;1002668;-72
2023/01/10 10:27:23;;;;;;;48.40;25.50;;;;;;;5.62;91.47;99806.19;103339;1256;107731;-73
2023/01/10 10:30:16;;;;;;;50.80;26.40;;;;;;;5.63;91.38;99805.47;103264;1254;138379;-72
2023/01/10 10:33:06;;;;;;;50.80;26.60;;;;;;;5.64;91.41;99809.24;103445;1253;107435;-72
2023/01/10 10:35:38;;;;;;;51.30;27.20;;;;;;;5.63;91.04;99814.27;103091;1254;138327;-73
2023/01/10 10:38:11;;;;;;;46.50;26.00;;;;;;;5.65;91.49;99814.92;102505;1253;1003297;-74
2023/01/10 10:40:42;;;;;;;47.70;26.70;;;;;;;5.67;91.43;99818.33;102857;1254;1003430;-74
2023/01/10 10:43:20;;;;;;;53.90;27.40;;;;;;;5.69;91.48;99816.56;103660;1253;97648;-74
2023/01/10 10:45:50;;;;;;;50.30;25.60;;;;;;;5.71;91.57;99816.33;103293;1253;107519;-74
2023/01/10 10:48:23;;;;;;;52.10;24.80;;;;;;;5.75;91.53;99817.32;103441;1254;138537;-73
2023/01/10 10:50:58;;;;;;;49.70;25.40;;;;;;;5.75;91.14;99822.48;103405;1253;110759;-73
2023/01/10 10:53:25;;;;;;;55.00;28.00;;;;;;;5.75;91.24;99821.80;103190;1254;138612;-73
2023/01/10 10:55:54;;;;;;;58.80;25.60;;;;;;;5.77;91.42;99829.54;103319;1253;98370;-73
2023/01/10 10:58:21;;;;;;;58.40;27.00;;;;;;;5.79;91.25;99833.98;103291;1253;106994;-72
2023/01/10 11:00:49;;;;;;;57.90;26.90;;;;;;;5.80;91.31;99838.77;103668;1253;138887;-73
2023/01/10 11:03:35;;;;;;;47.80;25.80;;;;;;;5.83;91.17;99835.45;103160;1253;110196;-73
2023/01/10 11:06:05;;;;;;;50.90;24.80;;;;;;;5.81;90.89;99837.04;102320;1252;1003018;-72
2023/01/10 11:08:35;;;;;;;51.80;25.70;;;;;;;5.79;90.90;99832.95;103326;1254;97798;-72
2023/01/10 11:11:06;;;;;;;53.00;28.10;;;;;;;5.80;91.16;99831.55;103078;1257;138309;-72
2023/01/10 11:13:45;;;;;;;53.60;27.50;;;;;;;5.81;91.15;99831.17;103513;1253;97799;-74
2023/01/10 11:16:26;;;;;;;49.10;26.30;;;;;;;5.81;91.28;99834.79;103293;1257;111184;-74
2023/01/10 11:19:15;;;;;;;49.60;26.40;;;;;;;5.83;91.12;99835.79;103241;1253;138330;-73
2023/01/10 11:21:45;;;;;;;51.40;26.40;;;;;;;5.83;90.92;99836.47;103236;1257;98334;-72
2023/01/10 11:24:23;;;;;;;50.30;25.30;;;;;;;5.81;90.68;99844.81;103192;1253;139041;-72
2023/01/10 11:26:52;;;;;;;54.10;26.30;;;;;;;5.78;90.71;99856.94;103238;1252;97688;-73
2023/01/10 11:29:24;;;;;;;51.00;25.70;;;;;;;5.78;90.92;99867.12;103101;1254;138368;-73
2023/01/10 11:31:53;;;;;;;56.80;25.30;;;;;;;5.79;91.10;99874.34;103231;1252;107288;-73